sensor_id;sensor_type;location;lat;lon;timestamp;pressure;altitude;pressure_sealevel;temperature;humidity
12781;BME280;6454;43.304;24.344;2023-03-14T00:00:09;100565.78;;;0.96;74.81
12781;BME280;6454;43.304;24.344;2023-03-14T00:02:36;100572.41;;;0.87;75.38
12781;BME280;6454;43.304;24.344;2023-03-14T00:05:04;100565.72;;;1.03;74.51
12781;BME280;6454;43.304;24.344;2023-03-14T00:07:32;100557.91;;;1.08;73.74
12781;BME280;6454;43.304;24.344;2023-03-14T00:10:01;100562.72;;;0.93;73.73
12781;BME280;6454;43.304;24.344;2023-03-14T00:12:31;100528.50;;;0.70;74.00
12781;BME280;6454;43.304;24.344;2023-03-14T00:14:58;100551.56;;;1.02;74.01
12781;BME280;6454;43.304;24.344;2023-03-14T00:17:28;100514.38;;;0.63;74.50
12781;BME280;6454;43.304;24.344;2023-03-14T00:19:56;100553.69;;;0.94;74.50
12781;BME280;6454;43.304;24.344;2023-03-14T00:22:22;100549.34;;;0.99;73.74
12781;BME280;6454;43.304;24.344;2023-03-14T00:24:50;100543.22;;;0.86;73.77
12781;BME280;6454;43.304;24.344;2023-03-14T00:27:17;100551.38;;;0.97;73.82
12781;BME280;6454;43.304;24.344;2023-03-14T00:29:45;100552.25;;;0.91;74.02
12781;BME280;6454;43.304;24.344;2023-03-14T00:32:11;100544.06;;;0.86;74.34
12781;BME280;6454;43.304;24.344;2023-03-14T00:34:38;100543.03;;;0.87;74.68
12781;BME280;6454;43.304;24.344;2023-03-14T00:37:05;100541.38;;;0.86;74.69
12781;BME280;6454;43.304;24.344;2023-03-14T00:39:32;100499.44;;;0.55;74.83
12781;BME280;6454;43.304;24.344;2023-03-14T00:41:59;100543.06;;;0.81;74.68
12781;BME280;6454;43.304;24.344;2023-03-14T00:44:25;100521.56;;;0.62;74.58
12781;BME280;6454;43.304;24.344;2023-03-14T00:46:54;100529.56;;;0.69;74.91
12781;BME280;6454;43.304;24.344;2023-03-14T00:49:21;100521.56;;;0.69;75.34
12781;BME280;6454;43.304;24.344;2023-03-14T00:51:47;100514.38;;;0.63;75.29
12781;BME280;6454;43.304;24.344;2023-03-14T00:54:14;100520.31;;;0.72;75.01
12781;BME280;6454;43.304;24.344;2023-03-14T00:56:41;100507.97;;;0.77;74.53
12781;BME280;6454;43.304;24.344;2023-03-14T00:59:08;100504.94;;;0.67;74.52
12781;BME280;6454;43.304;24.344;2023-03-14T01:01:34;100499.97;;;0.71;74.60
12781;BME280;6454;43.304;24.344;2023-03-14T01:04:02;100497.28;;;0.77;74.18
12781;BME280;6454;43.304;24.344;2023-03-14T01:06:29;100492.19;;;0.69;74.30
12781;BME280;6454;43.304;24.344;2023-03-14T01:08:57;100485.44;;;0.67;74.76
12781;BME280;6454;43.304;24.344;2023-03-14T01:11:26;100474.75;;;0.60;74.12
12781;BME280;6454;43.304;24.344;2023-03-14T01:13:53;100415.06;;;0.10;74.96
12781;BME280;6454;43.304;24.344;2023-03-14T01:16:21;100460.47;;;0.48;75.47
12781;BME280;6454;43.304;24.344;2023-03-14T01:18:48;100463.41;;;0.40;75.94
12781;BME280;6454;43.304;24.344;2023-03-14T01:21:22;100469.53;;;0.47;75.75
12781;BME280;6454;43.304;24.344;2023-03-14T01:23:50;100467.03;;;0.45;75.08
12781;BME280;6454;43.304;24.344;2023-03-14T01:26:19;100473.03;;;0.41;75.34
12781;BME280;6454;43.304;24.344;2023-03-14T01:28:49;100471.59;;;0.38;75.52
12781;BME280;6454;43.304;24.344;2023-03-14T01:31:17;100468.91;;;0.45;75.12
12781;BME280;6454;43.304;24.344;2023-03-14T01:33:46;100467.88;;;0.46;74.89
12781;BME280;6454;43.304;24.344;2023-03-14T01:36:13;100477.72;;;0.45;74.91
12781;BME280;6454;43.304;24.344;2023-03-14T01:38:41;100488.38;;;0.45;74.78
12781;BME280;6454;43.304;24.344;2023-03-14T01:41:13;100468.09;;;0.38;74.97
12781;BME280;6454;43.304;24.344;2023-03-14T01:43:40;100466.06;;;0.33;75.79
12781;BME280;6454;43.304;24.344;2023-03-14T01:46:22;100463.81;;;0.37;75.17
12781;BME280;6454;43.304;24.344;2023-03-14T01:49:01;100475.50;;;0.42;75.26
12781;BME280;6454;43.304;24.344;2023-03-14T01:51:32;100407.75;;;-0.01;75.60
12781;BME280;6454;43.304;24.344;2023-03-14T01:54:07;100473.03;;;0.41;75.55
12781;BME280;6454;43.304;24.344;2023-03-14T01:56:36;100474.25;;;0.38;75.38
12781;BME280;6454;43.304;24.344;2023-03-14T01:59:06;100396.31;;;-0.15;75.31
12781;BME280;6454;43.304;24.344;2023-03-14T02:01:34;100471.03;;;0.30;75.86
12781;BME280;6454;43.304;24.344;2023-03-14T02:04:05;100470.59;;;0.33;75.63
12781;BME280;6454;43.304;24.344;2023-03-14T02:06:40;100460.19;;;0.25;75.69
12781;BME280;6454;43.304;24.344;2023-03-14T02:09:09;100456.91;;;0.16;75.95
12781;BME280;6454;43.304;24.344;2023-03-14T02:11:36;100462.22;;;0.23;76.31
12781;BME280;6454;43.304;24.344;2023-03-14T02:14:03;100453.19;;;0.24;75.94
12781;BME280;6454;43.304;24.344;2023-03-14T02:16:30;100458.31;;;0.25;75.98
12781;BME280;6454;43.304;24.344;2023-03-14T02:18:57;100455.25;;;0.22;76.40
12781;BME280;6454;43.304;24.344;2023-03-14T02:21:30;100455.22;;;0.28;75.57
12781;BME280;6454;43.304;24.344;2023-03-14T02:24:07;100457.28;;;0.26;75.73
12781;BME280;6454;43.304;24.344;2023-03-14T02:26:39;100456.88;;;0.23;76.20
12781;BME280;6454;43.304;24.344;2023-03-14T02:29:10;100461.19;;;0.24;75.43
12781;BME280;6454;43.304;24.344;2023-03-14T02:31:43;100452.81;;;0.14;75.24
12781;BME280;6454;43.304;24.344;2023-03-14T02:34:10;100455.53;;;0.00;76.48
12781;BME280;6454;43.304;24.344;2023-03-14T02:36:37;100457.78;;;0.04;77.05
12781;BME280;6454;43.304;24.344;2023-03-14T02:39:08;100416.66;;;-0.20;77.27
12781;BME280;6454;43.304;24.344;2023-03-14T02:41:38;100467.34;;;0.24;77.00
12781;BME280;6454;43.304;24.344;2023-03-14T02:44:05;100463.44;;;0.27;76.10
12781;BME280;6454;43.304;24.344;2023-03-14T02:46:33;100469.19;;;0.24;75.38
12781;BME280;6454;43.304;24.344;2023-03-14T02:49:02;100467.16;;;0.19;75.28
12781;BME280;6454;43.304;24.344;2023-03-14T02:51:30;100463.72;;;0.12;75.63
12781;BME280;6454;43.304;24.344;2023-03-14T02:53:56;100459.84;;;0.02;75.94
12781;BME280;6454;43.304;24.344;2023-03-14T02:56:23;100448.00;;;-0.22;76.44
12781;BME280;6454;43.304;24.344;2023-03-14T02:58:50;100444.28;;;-0.15;77.75
12781;BME280;6454;43.304;24.344;2023-03-14T03:01:17;100447.59;;;-0.13;77.90
12781;BME280;6454;43.304;24.344;2023-03-14T03:03:45;100394.16;;;-0.44;77.56
12781;BME280;6454;43.304;24.344;2023-03-14T03:06:12;100451.66;;;-0.04;77.39
12781;BME280;6454;43.304;24.344;2023-03-14T03:08:39;100447.53;;;0.00;77.03
12781;BME280;6454;43.304;24.344;2023-03-14T03:11:06;100444.25;;;-0.02;77.03
12781;BME280;6454;43.304;24.344;2023-03-14T03:13:33;100426.06;;;-0.24;77.22
12781;BME280;6454;43.304;24.344;2023-03-14T03:16:00;100448.34;;;0.01;77.12
12781;BME280;6454;43.304;24.344;2023-03-14T03:18:27;100451.25;;;-0.01;77.04
12781;BME280;6454;43.304;24.344;2023-03-14T03:20:55;100453.91;;;-0.01;76.18
12781;BME280;6454;43.304;24.344;2023-03-14T03:23:22;100456.56;;;-0.07;76.37
12781;BME280;6454;43.304;24.344;2023-03-14T03:25:49;100452.75;;;-0.18;77.19
12781;BME280;6454;43.304;24.344;2023-03-14T03:28:16;100431.59;;;-0.19;77.45
12781;BME280;6454;43.304;24.344;2023-03-14T03:30:43;100449.59;;;-0.02;77.12
12781;BME280;6454;43.304;24.344;2023-03-14T03:33:11;100434.88;;;-0.11;77.01
12781;BME280;6454;43.304;24.344;2023-03-14T03:35:45;100433.41;;;0.00;77.54
12781;BME280;6454;43.304;24.344;2023-03-14T03:38:14;100400.47;;;-0.32;77.61
12781;BME280;6454;43.304;24.344;2023-03-14T03:40:41;100431.56;;;-0.06;77.66
12781;BME280;6454;43.304;24.344;2023-03-14T03:43:08;100427.63;;;0.03;77.45
12781;BME280;6454;43.304;24.344;2023-03-14T03:45:35;100425.00;;;-0.04;76.96
12781;BME280;6454;43.304;24.344;2023-03-14T03:48:02;100427.06;;;-0.06;76.75
12781;BME280;6454;43.304;24.344;2023-03-14T03:50:29;100428.09;;;-0.13;77.03
12781;BME280;6454;43.304;24.344;2023-03-14T03:52:56;100422.75;;;-0.07;76.61
12781;BME280;6454;43.304;24.344;2023-03-14T03:55:24;100425.03;;;-0.17;76.90
12781;BME280;6454;43.304;24.344;2023-03-14T03:57:53;100418.91;;;-0.24;77.21
12781;BME280;6454;43.304;24.344;2023-03-14T04:00:20;100387.81;;;-0.43;77.17
12781;BME280;6454;43.304;24.344;2023-03-14T04:02:46;100410.31;;;-0.32;77.02
12781;BME280;6454;43.304;24.344;2023-03-14T04:05:13;100413.00;;;-0.39;77.59
12781;BME280;6454;43.304;24.344;2023-03-14T04:07:40;100418.31;;;-0.39;77.52
12781;BME280;6454;43.304;24.344;2023-03-14T04:10:08;100421.41;;;-0.42;77.14
12781;BME280;6454;43.304;24.344;2023-03-14T04:12:36;100354.47;;;-0.78;77.13
12781;BME280;6454;43.304;24.344;2023-03-14T04:15:03;100414.00;;;-0.40;76.98
12781;BME280;6454;43.304;24.344;2023-03-14T04:17:30;100411.16;;;-0.45;77.83
12781;BME280;6454;43.304;24.344;2023-03-14T04:19:57;100415.88;;;-0.40;77.07
12781;BME280;6454;43.304;24.344;2023-03-14T04:22:24;100416.06;;;-0.42;76.95
12781;BME280;6454;43.304;24.344;2023-03-14T04:24:50;100412.41;;;-0.41;76.91
12781;BME280;6454;43.304;24.344;2023-03-14T04:27:17;100413.22;;;-0.40;76.40
12781;BME280;6454;43.304;24.344;2023-03-14T04:29:45;100418.97;;;-0.43;76.44
12781;BME280;6454;43.304;24.344;2023-03-14T04:32:12;100409.13;;;-0.49;76.60
12781;BME280;6454;43.304;24.344;2023-03-14T04:34:39;100327.69;;;-1.03;76.89
12781;BME280;6454;43.304;24.344;2023-03-14T04:37:06;100409.94;;;-0.49;77.06
12781;BME280;6454;43.304;24.344;2023-03-14T04:39:32;100405.66;;;-0.50;76.66
12781;BME280;6454;43.304;24.344;2023-03-14T04:41:59;100396.25;;;-0.52;77.12
12781;BME280;6454;43.304;24.344;2023-03-14T04:44:26;100389.47;;;-0.55;77.82
12781;BME280;6454;43.304;24.344;2023-03-14T04:46:54;100313.72;;;-0.85;77.00
12781;BME280;6454;43.304;24.344;2023-03-14T04:49:21;100384.50;;;-0.38;76.10
12781;BME280;6454;43.304;24.344;2023-03-14T04:51:48;100381.25;;;-0.47;76.42
12781;BME280;6454;43.304;24.344;2023-03-14T04:54:16;100381.44;;;-0.42;77.15
12781;BME280;6454;43.304;24.344;2023-03-14T04:56:42;100379.56;;;-0.35;76.32
12781;BME280;6454;43.304;24.344;2023-03-14T04:59:09;100372.00;;;-0.38;76.71
12781;BME280;6454;43.304;24.344;2023-03-14T05:01:36;100370.97;;;-0.37;77.56
12781;BME280;6454;43.304;24.344;2023-03-14T05:04:04;100371.75;;;-0.30;77.96
12781;BME280;6454;43.304;24.344;2023-03-14T05:06:31;100377.91;;;-0.29;78.28
12781;BME280;6454;43.304;24.344;2023-03-14T05:08:58;100380.56;;;-0.23;77.83
12781;BME280;6454;43.304;24.344;2023-03-14T05:11:25;100377.03;;;-0.17;77.70
12781;BME280;6454;43.304;24.344;2023-03-14T05:13:52;100377.03;;;-0.10;77.60
12781;BME280;6454;43.304;24.344;2023-03-14T05:16:19;100385.81;;;-0.10;77.83
12781;BME280;6454;43.304;24.344;2023-03-14T05:18:46;100390.75;;;-0.07;78.15
12781;BME280;6454;43.304;24.344;2023-03-14T05:21:14;100391.34;;;-0.05;79.27
12781;BME280;6454;43.304;24.344;2023-03-14T05:23:41;100386.78;;;0.03;79.25
12781;BME280;6454;43.304;24.344;2023-03-14T05:26:07;100345.28;;;-0.18;79.42
12781;BME280;6454;43.304;24.344;2023-03-14T05:28:34;100385.84;;;0.28;79.75
12781;BME280;6454;43.304;24.344;2023-03-14T05:31:01;100384.59;;;0.37;80.24
12781;BME280;6454;43.304;24.344;2023-03-14T05:33:32;100381.41;;;0.53;79.98
12781;BME280;6454;43.304;24.344;2023-03-14T05:35:59;100393.66;;;0.61;79.83
12781;BME280;6454;43.304;24.344;2023-03-14T05:38:27;100382.19;;;0.85;80.22
12781;BME280;6454;43.304;24.344;2023-03-14T05:40:54;100378.38;;;0.99;79.88
12781;BME280;6454;43.304;24.344;2023-03-14T05:43:20;100375.16;;;1.15;80.19
12781;BME280;6454;43.304;24.344;2023-03-14T05:45:47;100372.94;;;1.30;79.41
12781;BME280;6454;43.304;24.344;2023-03-14T05:48:14;100380.72;;;1.57;78.89
12781;BME280;6454;43.304;24.344;2023-03-14T05:50:42;100378.94;;;1.69;78.52
12781;BME280;6454;43.304;24.344;2023-03-14T05:53:08;100379.53;;;1.89;77.78
12781;BME280;6454;43.304;24.344;2023-03-14T05:55:37;100375.91;;;2.13;76.68
12781;BME280;6454;43.304;24.344;2023-03-14T05:58:03;100371.78;;;2.29;76.13
12781;BME280;6454;43.304;24.344;2023-03-14T06:00:30;100369.75;;;2.42;75.75
12781;BME280;6454;43.304;24.344;2023-03-14T06:02:57;100378.09;;;2.64;73.54
12781;BME280;6454;43.304;24.344;2023-03-14T06:05:24;100368.56;;;2.80;73.47
12781;BME280;6454;43.304;24.344;2023-03-14T06:07:51;100365.31;;;2.89;73.52
12781;BME280;6454;43.304;24.344;2023-03-14T06:10:17;100367.31;;;3.05;72.79
12781;BME280;6454;43.304;24.344;2023-03-14T06:12:46;100363.25;;;3.26;71.51
12781;BME280;6454;43.304;24.344;2023-03-14T06:15:12;100367.88;;;3.42;70.51
12781;BME280;6454;43.304;24.344;2023-03-14T06:17:39;100361.00;;;3.58;70.46
12781;BME280;6454;43.304;24.344;2023-03-14T06:20:07;100355.16;;;3.72;70.10
12781;BME280;6454;43.304;24.344;2023-03-14T06:22:34;100363.97;;;3.84;70.14
12781;BME280;6454;43.304;24.344;2023-03-14T06:25:00;100353.81;;;3.98;69.99
12781;BME280;6454;43.304;24.344;2023-03-14T06:27:29;100348.25;;;4.16;69.29
12781;BME280;6454;43.304;24.344;2023-03-14T06:29:57;100314.94;;;4.01;68.82
12781;BME280;6454;43.304;24.344;2023-03-14T06:32:24;100353.94;;;4.48;68.44
12781;BME280;6454;43.304;24.344;2023-03-14T06:34:50;100347.75;;;4.64;67.56
12781;BME280;6454;43.304;24.344;2023-03-14T06:37:18;100352.34;;;4.80;67.30
12781;BME280;6454;43.304;24.344;2023-03-14T06:39:45;100286.31;;;4.51;66.81
12781;BME280;6454;43.304;24.344;2023-03-14T06:42:12;100343.13;;;5.09;66.59
12781;BME280;6454;43.304;24.344;2023-03-14T06:44:38;100346.88;;;5.25;66.15
12781;BME280;6454;43.304;24.344;2023-03-14T06:47:06;100348.16;;;5.39;65.88
12781;BME280;6454;43.304;24.344;2023-03-14T06:49:33;100345.13;;;5.52;65.62
12781;BME280;6454;43.304;24.344;2023-03-14T06:52:01;100337.47;;;5.66;65.36
12781;BME280;6454;43.304;24.344;2023-03-14T06:54:28;100340.44;;;5.86;64.49
12781;BME280;6454;43.304;24.344;2023-03-14T06:56:55;100337.88;;;5.96;63.65
12781;BME280;6454;43.304;24.344;2023-03-14T06:59:22;100250.75;;;5.59;63.45
12781;BME280;6454;43.304;24.344;2023-03-14T07:01:48;100342.06;;;6.30;63.49
12781;BME280;6454;43.304;24.344;2023-03-14T07:04:17;100344.09;;;6.45;63.71
12781;BME280;6454;43.304;24.344;2023-03-14T07:06:44;100344.78;;;6.62;62.94
12781;BME280;6454;43.304;24.344;2023-03-14T07:09:12;100347.91;;;6.81;63.80
12781;BME280;6454;43.304;24.344;2023-03-14T07:11:38;100341.00;;;6.90;63.19
12781;BME280;6454;43.304;24.344;2023-03-14T07:14:05;100336.28;;;7.07;63.38
12781;BME280;6454;43.304;24.344;2023-03-14T07:16:32;100334.22;;;7.24;62.59
12781;BME280;6454;43.304;24.344;2023-03-14T07:18:59;100331.03;;;7.27;62.28
12781;BME280;6454;43.304;24.344;2023-03-14T07:21:27;100336.50;;;7.42;61.68
12781;BME280;6454;43.304;24.344;2023-03-14T07:23:54;100331.72;;;7.54;62.48
12781;BME280;6454;43.304;24.344;2023-03-14T07:26:21;100325.59;;;7.74;60.62
12781;BME280;6454;43.304;24.344;2023-03-14T07:28:48;100208.41;;;7.08;60.23
12781;BME280;6454;43.304;24.344;2023-03-14T07:31:15;100305.41;;;7.92;60.76
12781;BME280;6454;43.304;24.344;2023-03-14T07:33:42;100270.28;;;7.82;59.95
12781;BME280;6454;43.304;24.344;2023-03-14T07:36:09;100310.38;;;8.20;58.90
12781;BME280;6454;43.304;24.344;2023-03-14T07:38:37;100314.75;;;8.31;58.96
12781;BME280;6454;43.304;24.344;2023-03-14T07:41:06;100312.06;;;8.41;58.17
12781;BME280;6454;43.304;24.344;2023-03-14T07:43:33;100221.97;;;8.00;57.45
12781;BME280;6454;43.304;24.344;2023-03-14T07:46:00;100297.19;;;8.54;56.95
12781;BME280;6454;43.304;24.344;2023-03-14T07:48:28;100194.72;;;8.17;56.93
12781;BME280;6454;43.304;24.344;2023-03-14T07:50:55;100247.47;;;8.65;55.49
12781;BME280;6454;43.304;24.344;2023-03-14T07:53:23;100300.13;;;9.18;53.36
12781;BME280;6454;43.304;24.344;2023-03-14T07:55:52;100298.78;;;9.25;53.89
12781;BME280;6454;43.304;24.344;2023-03-14T07:58:20;100286.56;;;9.38;54.21
12781;BME280;6454;43.304;24.344;2023-03-14T08:00:48;100292.47;;;9.50;55.17
12781;BME280;6454;43.304;24.344;2023-03-14T08:03:15;100285.91;;;9.71;55.50
12781;BME280;6454;43.304;24.344;2023-03-14T08:05:42;100285.59;;;9.83;53.33
12781;BME280;6454;43.304;24.344;2023-03-14T08:08:08;100275.31;;;9.85;54.04
12781;BME280;6454;43.304;24.344;2023-03-14T08:10:35;100278.22;;;9.93;51.67
12781;BME280;6454;43.304;24.344;2023-03-14T08:13:03;100277.34;;;10.08;51.90
12781;BME280;6454;43.304;24.344;2023-03-14T08:15:30;100168.75;;;9.45;51.14
12781;BME280;6454;43.304;24.344;2023-03-14T08:17:57;100272.59;;;10.33;52.91
12781;BME280;6454;43.304;24.344;2023-03-14T08:20:26;100265.97;;;10.50;52.10
12781;BME280;6454;43.304;24.344;2023-03-14T08:22:55;100263.81;;;10.52;50.53
12781;BME280;6454;43.304;24.344;2023-03-14T08:25:22;100243.84;;;10.32;49.64
12781;BME280;6454;43.304;24.344;2023-03-14T08:27:49;100263.94;;;10.65;50.71
12781;BME280;6454;43.304;24.344;2023-03-14T08:30:19;100264.19;;;10.69;50.84
12781;BME280;6454;43.304;24.344;2023-03-14T08:32:46;100271.66;;;10.82;50.15
12781;BME280;6454;43.304;24.344;2023-03-14T08:35:13;100171.06;;;10.11;47.92
12781;BME280;6454;43.304;24.344;2023-03-14T08:37:41;100259.97;;;10.86;47.78
12781;BME280;6454;43.304;24.344;2023-03-14T08:40:08;100256.06;;;10.97;48.07
12781;BME280;6454;43.304;24.344;2023-03-14T08:42:37;100218.78;;;10.79;46.52
12781;BME280;6454;43.304;24.344;2023-03-14T08:45:06;100257.69;;;11.22;47.91
12781;BME280;6454;43.304;24.344;2023-03-14T08:47:34;100244.31;;;11.31;46.90
12781;BME280;6454;43.304;24.344;2023-03-14T08:50:02;100133.41;;;10.72;45.87
12781;BME280;6454;43.304;24.344;2023-03-14T08:52:29;100228.06;;;11.49;48.06
12781;BME280;6454;43.304;24.344;2023-03-14T08:54:57;100133.69;;;10.94;46.30
12781;BME280;6454;43.304;24.344;2023-03-14T08:57:24;100227.84;;;11.70;46.39
12781;BME280;6454;43.304;24.344;2023-03-14T08:59:53;100207.47;;;11.67;46.33
12781;BME280;6454;43.304;24.344;2023-03-14T09:02:20;100219.19;;;11.86;46.33
12781;BME280;6454;43.304;24.344;2023-03-14T09:04:49;100220.16;;;11.95;46.41
12781;BME280;6454;43.304;24.344;2023-03-14T09:07:16;99915.78;;;10.09;45.69
12781;BME280;6454;43.304;24.344;2023-03-14T09:09:43;100233.44;;;12.15;46.80
12781;BME280;6454;43.304;24.344;2023-03-14T09:12:10;100125.94;;;11.48;45.60
12781;BME280;6454;43.304;24.344;2023-03-14T09:14:37;100170.69;;;12.12;44.73
12781;BME280;6454;43.304;24.344;2023-03-14T09:17:05;100204.56;;;12.38;44.45
12781;BME280;6454;43.304;24.344;2023-03-14T09:19:31;100160.16;;;12.24;44.64
12781;BME280;6454;43.304;24.344;2023-03-14T09:22:00;100196.13;;;12.53;44.93
12781;BME280;6454;43.304;24.344;2023-03-14T09:24:26;100185.25;;;12.53;44.68
12781;BME280;6454;43.304;24.344;2023-03-14T09:26:54;100184.38;;;12.71;43.89
12781;BME280;6454;43.304;24.344;2023-03-14T09:29:22;100176.34;;;12.80;43.54
12781;BME280;6454;43.304;24.344;2023-03-14T09:31:49;100181.41;;;13.00;42.86
12781;BME280;6454;43.304;24.344;2023-03-14T09:34:16;100162.97;;;13.11;42.40
12781;BME280;6454;43.304;24.344;2023-03-14T09:36:44;100132.00;;;13.07;41.65
12781;BME280;6454;43.304;24.344;2023-03-14T09:39:14;100095.38;;;12.85;41.26
12781;BME280;6454;43.304;24.344;2023-03-14T09:41:44;100048.50;;;12.61;41.33
12781;BME280;6454;43.304;24.344;2023-03-14T09:44:15;100117.69;;;13.28;42.38
12781;BME280;6454;43.304;24.344;2023-03-14T09:46:44;100047.06;;;13.05;42.00
12781;BME280;6454;43.304;24.344;2023-03-14T09:49:21;100121.72;;;13.67;40.71
12781;BME280;6454;43.304;24.344;2023-03-14T09:51:51;100118.75;;;13.77;41.72
12781;BME280;6454;43.304;24.344;2023-03-14T09:54:30;100134.84;;;13.78;41.14
12781;BME280;6454;43.304;24.344;2023-03-14T09:56:58;100110.41;;;13.73;41.64
12781;BME280;6454;43.304;24.344;2023-03-14T09:59:26;100135.25;;;13.94;42.86
12781;BME280;6454;43.304;24.344;2023-03-14T10:01:56;100124.09;;;14.04;42.19
12781;BME280;6454;43.304;24.344;2023-03-14T10:04:25;100055.88;;;13.73;41.49
12781;BME280;6454;43.304;24.344;2023-03-14T10:06:52;100060.78;;;13.85;41.37
12781;BME280;6454;43.304;24.344;2023-03-14T10:09:21;100079.94;;;14.15;41.16
12781;BME280;6454;43.304;24.344;2023-03-14T10:11:54;100075.81;;;14.27;41.83
12781;BME280;6454;43.304;24.344;2023-03-14T10:14:31;100068.38;;;14.41;42.22
12781;BME280;6454;43.304;24.344;2023-03-14T10:17:05;100066.16;;;14.51;41.90
12781;BME280;6454;43.304;24.344;2023-03-14T10:19:35;100062.19;;;14.57;41.18
12781;BME280;6454;43.304;24.344;2023-03-14T10:22:04;100036.53;;;14.67;41.41
12781;BME280;6454;43.304;24.344;2023-03-14T10:24:32;100009.03;;;14.55;39.90
12781;BME280;6454;43.304;24.344;2023-03-14T10:27:03;100032.88;;;14.80;39.64
12781;BME280;6454;43.304;24.344;2023-03-14T10:29:52;100025.84;;;14.88;39.20
12781;BME280;6454;43.304;24.344;2023-03-14T10:32:20;100021.53;;;14.95;39.17
12781;BME280;6454;43.304;24.344;2023-03-14T10:35:17;100003.84;;;15.01;39.12
12781;BME280;6454;43.304;24.344;2023-03-14T10:37:50;99991.31;;;15.00;37.88
12781;BME280;6454;43.304;24.344;2023-03-14T10:40:19;99994.22;;;15.21;37.79
12781;BME280;6454;43.304;24.344;2023-03-14T10:42:48;99982.03;;;15.27;38.70
12781;BME280;6454;43.304;24.344;2023-03-14T10:45:30;99974.16;;;15.42;37.76
12781;BME280;6454;43.304;24.344;2023-03-14T10:47:59;99832.91;;;14.57;37.95
12781;BME280;6454;43.304;24.344;2023-03-14T10:50:32;99884.63;;;15.05;37.22
12781;BME280;6454;43.304;24.344;2023-03-14T10:53:01;99923.66;;;15.31;37.59
12781;BME280;6454;43.304;24.344;2023-03-14T10:55:40;99944.84;;;15.69;37.46
12781;BME280;6454;43.304;24.344;2023-03-14T10:58:22;99947.91;;;15.76;38.26
12781;BME280;6454;43.304;24.344;2023-03-14T11:00:58;99641.88;;;13.97;37.29
12781;BME280;6454;43.304;24.344;2023-03-14T11:03:28;99927.63;;;15.85;37.62
12781;BME280;6454;43.304;24.344;2023-03-14T11:05:59;99918.50;;;16.10;38.50
12781;BME280;6454;43.304;24.344;2023-03-14T11:08:33;99908.47;;;16.23;37.87
12781;BME280;6454;43.304;24.344;2023-03-14T11:11:13;99899.56;;;16.35;36.47
12781;BME280;6454;43.304;24.344;2023-03-14T11:13:53;99890.94;;;16.53;37.75
12781;BME280;6454;43.304;24.344;2023-03-14T11:16:28;99887.97;;;16.67;37.68
12781;BME280;6454;43.304;24.344;2023-03-14T11:19:23;99884.88;;;16.89;36.82
12781;BME280;6454;43.304;24.344;2023-03-14T11:21:59;99806.28;;;16.40;35.06
12781;BME280;6454;43.304;24.344;2023-03-14T11:24:41;99856.22;;;16.87;34.65
12781;BME280;6454;43.304;24.344;2023-03-14T11:27:17;99865.31;;;16.99;35.39
12781;BME280;6454;43.304;24.344;2023-03-14T11:29:54;99829.88;;;16.94;34.83
12781;BME280;6454;43.304;24.344;2023-03-14T11:32:34;99843.00;;;17.21;34.72
12781;BME280;6454;43.304;24.344;2023-03-14T11:35:08;99837.22;;;17.35;34.90
12781;BME280;6454;43.304;24.344;2023-03-14T11:37:46;99827.69;;;17.53;33.80
12781;BME280;6454;43.304;24.344;2023-03-14T11:40:17;99783.75;;;17.29;32.81
12781;BME280;6454;43.304;24.344;2023-03-14T11:42:49;99823.16;;;17.57;32.19
12781;BME280;6454;43.304;24.344;2023-03-14T11:45:28;99690.03;;;16.58;30.90
12781;BME280;6454;43.304;24.344;2023-03-14T11:48:07;99683.00;;;16.69;30.54
12781;BME280;6454;43.304;24.344;2023-03-14T11:50:37;99750.63;;;17.22;30.73
12781;BME280;6454;43.304;24.344;2023-03-14T11:53:09;99798.69;;;17.64;29.41
12781;BME280;6454;43.304;24.344;2023-03-14T11:55:41;99787.28;;;17.74;29.92
12781;BME280;6454;43.304;24.344;2023-03-14T11:58:13;99787.72;;;17.88;29.47
12781;BME280;6454;43.304;24.344;2023-03-14T12:00:43;99772.41;;;17.99;27.92
12781;BME280;6454;43.304;24.344;2023-03-14T12:03:16;99774.78;;;18.01;28.06
12781;BME280;6454;43.304;24.344;2023-03-14T12:05:50;99767.78;;;18.16;28.24
12781;BME280;6454;43.304;24.344;2023-03-14T12:08:39;99758.50;;;18.20;27.52
12781;BME280;6454;43.304;24.344;2023-03-14T12:11:12;99755.66;;;18.29;27.69
12781;BME280;6454;43.304;24.344;2023-03-14T12:13:46;99749.09;;;18.33;25.98
12781;BME280;6454;43.304;24.344;2023-03-14T12:16:32;99747.88;;;18.19;25.01
12781;BME280;6454;43.304;24.344;2023-03-14T12:22:19;99741.72;;;18.22;24.78
12781;BME280;6454;43.304;24.344;2023-03-14T12:24:51;99740.00;;;18.17;24.99
12781;BME280;6454;43.304;24.344;2023-03-14T12:27:40;99720.63;;;18.26;24.27
12781;BME280;6454;43.304;24.344;2023-03-14T12:30:16;99720.50;;;18.34;24.36
12781;BME280;6454;43.304;24.344;2023-03-14T12:36:00;99721.75;;;18.37;23.75
12781;BME280;6454;43.304;24.344;2023-03-14T12:38:37;99709.16;;;18.48;23.82
12781;BME280;6454;43.304;24.344;2023-03-14T12:41:14;99708.91;;;18.53;23.58
12781;BME280;6454;43.304;24.344;2023-03-14T12:43:42;99700.22;;;18.51;23.66
12781;BME280;6454;43.304;24.344;2023-03-14T12:46:19;99696.84;;;18.70;23.07
12781;BME280;6454;43.304;24.344;2023-03-14T12:48:49;99692.59;;;18.72;22.89
12781;BME280;6454;43.304;24.344;2023-03-14T12:51:19;99691.16;;;18.78;23.31
12781;BME280;6454;43.304;24.344;2023-03-14T12:54:17;99683.47;;;18.84;23.30
12781;BME280;6454;43.304;24.344;2023-03-14T12:56:58;99674.94;;;18.73;23.03
12781;BME280;6454;43.304;24.344;2023-03-14T12:59:32;99679.63;;;18.73;22.26
12781;BME280;6454;43.304;24.344;2023-03-14T13:02:01;99672.19;;;18.73;23.80
12781;BME280;6454;43.304;24.344;2023-03-14T13:04:33;99668.56;;;18.69;24.31
12781;BME280;6454;43.304;24.344;2023-03-14T13:07:02;99661.81;;;18.82;24.63
12781;BME280;6454;43.304;24.344;2023-03-14T13:09:50;99663.25;;;18.76;23.41
12781;BME280;6454;43.304;24.344;2023-03-14T13:12:23;99668.44;;;18.65;24.12
12781;BME280;6454;43.304;24.344;2023-03-14T13:14:58;99655.06;;;18.64;23.78